sensor_id;sensor_type;location;lat;lon;timestamp;temperature;humidity
33988;DHT22;37428;53.580;-1.666;2024-03-02T00:01:57;2.10;99.90
33988;DHT22;37428;53.580;-1.666;2024-03-02T00:04:59;2.10;99.90
33988;DHT22;37428;53.580;-1.666;2024-03-02T00:08:05;2.10;99.90
33988;DHT22;37428;53.580;-1.666;2024-03-02T00:11:08;2.10;99.90
33988;DHT22;37428;53.580;-1.666;2024-03-02T00:14:12;2.20;99.90
33988;DHT22;37428;53.580;-1.666;2024-03-02T00:17:24;2.20;99.90
33988;DHT22;37428;53.580;-1.666;2024-03-02T00:20:27;2.20;99.90
33988;DHT22;37428;53.580;-1.666;2024-03-02T00:23:31;2.20;99.90
33988;DHT22;37428;53.580;-1.666;2024-03-02T00:26:35;2.20;99.90
33988;DHT22;37428;53.580;-1.666;2024-03-02T00:29:37;2.20;99.90
33988;DHT22;37428;53.580;-1.666;2024-03-02T00:32:39;2.20;99.90
33988;DHT22;37428;53.580;-1.666;2024-03-02T00:35:44;2.20;99.90
33988;DHT22;37428;53.580;-1.666;2024-03-02T00:38:49;2.30;99.90
33988;DHT22;37428;53.580;-1.666;2024-03-02T00:41:51;2.30;99.90
33988;DHT22;37428;53.580;-1.666;2024-03-02T00:44:53;2.40;99.90
33988;DHT22;37428;53.580;-1.666;2024-03-02T00:47:56;2.40;99.90
33988;DHT22;37428;53.580;-1.666;2024-03-02T00:50:58;2.40;99.90
33988;DHT22;37428;53.580;-1.666;2024-03-02T00:54:02;2.30;99.90
33988;DHT22;37428;53.580;-1.666;2024-03-02T00:57:05;2.30;99.90
33988;DHT22;37428;53.580;-1.666;2024-03-02T01:00:08;2.20;99.90
33988;DHT22;37428;53.580;-1.666;2024-03-02T01:03:12;2.20;99.90
33988;DHT22;37428;53.580;-1.666;2024-03-02T01:06:15;2.10;99.90
33988;DHT22;37428;53.580;-1.666;2024-03-02T01:09:18;2.10;99.90
33988;DHT22;37428;53.580;-1.666;2024-03-02T01:12:21;2.10;99.90
33988;DHT22;37428;53.580;-1.666;2024-03-02T01:15:23;2.10;99.90
33988;DHT22;37428;53.580;-1.666;2024-03-02T01:18:25;2.10;99.90
33988;DHT22;37428;53.580;-1.666;2024-03-02T01:21:27;2.10;99.90
33988;DHT22;37428;53.580;-1.666;2024-03-02T01:24:31;2.10;99.90
33988;DHT22;37428;53.580;-1.666;2024-03-02T01:27:33;2.10;99.90
33988;DHT22;37428;53.580;-1.666;2024-03-02T01:30:35;2.10;99.90
33988;DHT22;37428;53.580;-1.666;2024-03-02T01:33:38;2.10;99.90
33988;DHT22;37428;53.580;-1.666;2024-03-02T01:36:40;2.10;99.90
33988;DHT22;37428;53.580;-1.666;2024-03-02T01:39:43;2.00;99.90
33988;DHT22;37428;53.580;-1.666;2024-03-02T01:42:45;2.00;99.90
33988;DHT22;37428;53.580;-1.666;2024-03-02T01:45:48;2.00;99.90
33988;DHT22;37428;53.580;-1.666;2024-03-02T01:48:50;1.90;99.90
33988;DHT22;37428;53.580;-1.666;2024-03-02T01:51:52;1.90;99.90
33988;DHT22;37428;53.580;-1.666;2024-03-02T01:54:55;2.00;99.90
33988;DHT22;37428;53.580;-1.666;2024-03-02T01:57:57;2.00;99.90
33988;DHT22;37428;53.580;-1.666;2024-03-02T02:01:00;2.00;99.90
33988;DHT22;37428;53.580;-1.666;2024-03-02T02:04:02;1.90;99.90
33988;DHT22;37428;53.580;-1.666;2024-03-02T02:07:04;2.00;99.90
33988;DHT22;37428;53.580;-1.666;2024-03-02T02:10:09;2.00;99.90
33988;DHT22;37428;53.580;-1.666;2024-03-02T02:13:11;2.10;99.90
33988;DHT22;37428;53.580;-1.666;2024-03-02T02:16:13;2.10;99.90
33988;DHT22;37428;53.580;-1.666;2024-03-02T02:19:16;2.10;99.90
33988;DHT22;37428;53.580;-1.666;2024-03-02T02:22:19;2.10;99.90
33988;DHT22;37428;53.580;-1.666;2024-03-02T02:25:21;2.10;99.90
33988;DHT22;37428;53.580;-1.666;2024-03-02T02:28:23;2.10;99.90
33988;DHT22;37428;53.580;-1.666;2024-03-02T02:31:25;2.20;99.90
33988;DHT22;37428;53.580;-1.666;2024-03-02T02:34:28;2.20;99.90
33988;DHT22;37428;53.580;-1.666;2024-03-02T02:37:31;2.20;99.90
33988;DHT22;37428;53.580;-1.666;2024-03-02T02:40:33;2.10;99.90
33988;DHT22;37428;53.580;-1.666;2024-03-02T02:43:35;2.10;99.90
33988;DHT22;37428;53.580;-1.666;2024-03-02T02:46:37;2.10;99.90
33988;DHT22;37428;53.580;-1.666;2024-03-02T02:49:39;2.10;99.90
33988;DHT22;37428;53.580;-1.666;2024-03-02T02:52:44;2.10;99.90
33988;DHT22;37428;53.580;-1.666;2024-03-02T02:55:46;2.20;99.90
33988;DHT22;37428;53.580;-1.666;2024-03-02T02:58:48;2.20;99.90
33988;DHT22;37428;53.580;-1.666;2024-03-02T03:01:52;2.20;99.90
33988;DHT22;37428;53.580;-1.666;2024-03-02T03:04:54;2.10;99.90
33988;DHT22;37428;53.580;-1.666;2024-03-02T03:07:59;2.20;99.90
33988;DHT22;37428;53.580;-1.666;2024-03-02T03:11:01;2.20;99.90
33988;DHT22;37428;53.580;-1.666;2024-03-02T03:14:03;2.10;99.90
33988;DHT22;37428;53.580;-1.666;2024-03-02T03:17:06;2.10;99.90
33988;DHT22;37428;53.580;-1.666;2024-03-02T03:20:09;2.10;99.90
33988;DHT22;37428;53.580;-1.666;2024-03-02T03:23:12;2.10;99.90
33988;DHT22;37428;53.580;-1.666;2024-03-02T03:26:16;2.10;99.90
33988;DHT22;37428;53.580;-1.666;2024-03-02T03:29:18;2.10;99.90
33988;DHT22;37428;53.580;-1.666;2024-03-02T03:32:21;2.20;99.90
33988;DHT22;37428;53.580;-1.666;2024-03-02T03:35:23;2.20;99.90
33988;DHT22;37428;53.580;-1.666;2024-03-02T03:38:27;2.20;99.90
33988;DHT22;37428;53.580;-1.666;2024-03-02T03:41:29;2.20;99.90
33988;DHT22;37428;53.580;-1.666;2024-03-02T03:44:31;2.20;99.90
33988;DHT22;37428;53.580;-1.666;2024-03-02T03:47:33;2.20;99.90
33988;DHT22;37428;53.580;-1.666;2024-03-02T03:50:35;2.20;99.90
33988;DHT22;37428;53.580;-1.666;2024-03-02T03:53:40;2.30;99.90
33988;DHT22;37428;53.580;-1.666;2024-03-02T03:56:42;2.30;99.90
33988;DHT22;37428;53.580;-1.666;2024-03-02T03:59:44;2.30;99.90
33988;DHT22;37428;53.580;-1.666;2024-03-02T04:02:46;2.30;99.90
33988;DHT22;37428;53.580;-1.666;2024-03-02T04:05:48;2.30;99.90
33988;DHT22;37428;53.580;-1.666;2024-03-02T04:08:52;2.30;99.90
33988;DHT22;37428;53.580;-1.666;2024-03-02T04:11:54;2.30;99.90
33988;DHT22;37428;53.580;-1.666;2024-03-02T04:14:56;2.20;99.90
33988;DHT22;37428;53.580;-1.666;2024-03-02T04:17:58;2.20;99.90
33988;DHT22;37428;53.580;-1.666;2024-03-02T04:21:00;2.20;99.90
33988;DHT22;37428;53.580;-1.666;2024-03-02T04:24:05;2.20;99.90
33988;DHT22;37428;53.580;-1.666;2024-03-02T04:27:07;2.10;99.90
33988;DHT22;37428;53.580;-1.666;2024-03-02T04:30:10;2.00;99.90
33988;DHT22;37428;53.580;-1.666;2024-03-02T04:33:12;2.00;99.90
33988;DHT22;37428;53.580;-1.666;2024-03-02T04:36:14;1.90;99.90
33988;DHT22;37428;53.580;-1.666;2024-03-02T04:39:18;1.90;99.90
33988;DHT22;37428;53.580;-1.666;2024-03-02T04:42:20;2.00;99.90
33988;DHT22;37428;53.580;-1.666;2024-03-02T04:45:24;2.00;99.90
33988;DHT22;37428;53.580;-1.666;2024-03-02T04:48:26;2.00;99.90
33988;DHT22;37428;53.580;-1.666;2024-03-02T04:51:28;2.00;99.90
33988;DHT22;37428;53.580;-1.666;2024-03-02T04:54:32;1.90;99.90
33988;DHT22;37428;53.580;-1.666;2024-03-02T04:57:54;2.00;99.90
33988;DHT22;37428;53.580;-1.666;2024-03-02T05:00:56;1.90;99.90
33988;DHT22;37428;53.580;-1.666;2024-03-02T05:04:00;1.90;99.90
33988;DHT22;37428;53.580;-1.666;2024-03-02T05:07:02;1.90;99.90
33988;DHT22;37428;53.580;-1.666;2024-03-02T05:10:06;2.00;99.90
33988;DHT22;37428;53.580;-1.666;2024-03-02T05:13:08;1.90;99.90
33988;DHT22;37428;53.580;-1.666;2024-03-02T05:16:10;1.90;99.90
33988;DHT22;37428;53.580;-1.666;2024-03-02T05:19:12;1.90;99.90
33988;DHT22;37428;53.580;-1.666;2024-03-02T05:22:14;2.00;99.90
33988;DHT22;37428;53.580;-1.666;2024-03-02T05:25:18;2.00;99.90
33988;DHT22;37428;53.580;-1.666;2024-03-02T05:28:20;2.00;99.90
33988;DHT22;37428;53.580;-1.666;2024-03-02T05:31:22;2.00;99.90
33988;DHT22;37428;53.580;-1.666;2024-03-02T05:34:25;2.10;99.90
33988;DHT22;37428;53.580;-1.666;2024-03-02T05:37:27;2.10;99.90
33988;DHT22;37428;53.580;-1.666;2024-03-02T05:40:30;2.10;99.90
33988;DHT22;37428;53.580;-1.666;2024-03-02T05:43:32;2.10;99.90
33988;DHT22;37428;53.580;-1.666;2024-03-02T05:46:34;2.10;99.90
33988;DHT22;37428;53.580;-1.666;2024-03-02T05:49:37;2.10;99.90
33988;DHT22;37428;53.580;-1.666;2024-03-02T05:52:39;2.10;99.90
33988;DHT22;37428;53.580;-1.666;2024-03-02T05:55:42;2.10;99.90
33988;DHT22;37428;53.580;-1.666;2024-03-02T05:58:45;2.10;99.90
33988;DHT22;37428;53.580;-1.666;2024-03-02T06:01:58;2.00;99.90
33988;DHT22;37428;53.580;-1.666;2024-03-02T06:05:00;2.10;99.90
33988;DHT22;37428;53.580;-1.666;2024-03-02T06:08:03;2.10;99.90
33988;DHT22;37428;53.580;-1.666;2024-03-02T06:11:06;2.20;99.90
33988;DHT22;37428;53.580;-1.666;2024-03-02T06:14:09;2.20;99.90
33988;DHT22;37428;53.580;-1.666;2024-03-02T06:17:11;2.20;99.90
33988;DHT22;37428;53.580;-1.666;2024-03-02T06:20:13;2.20;99.90
33988;DHT22;37428;53.580;-1.666;2024-03-02T06:23:15;2.10;99.90
33988;DHT22;37428;53.580;-1.666;2024-03-02T06:26:19;2.10;99.90
33988;DHT22;37428;53.580;-1.666;2024-03-02T06:29:21;2.10;99.90
33988;DHT22;37428;53.580;-1.666;2024-03-02T06:32:23;2.00;99.90
33988;DHT22;37428;53.580;-1.666;2024-03-02T06:35:25;2.10;99.90
33988;DHT22;37428;53.580;-1.666;2024-03-02T06:38:28;2.10;99.90
33988;DHT22;37428;53.580;-1.666;2024-03-02T06:41:31;2.10;99.90
33988;DHT22;37428;53.580;-1.666;2024-03-02T06:44:34;2.00;99.90
33988;DHT22;37428;53.580;-1.666;2024-03-02T06:47:36;2.00;99.90
33988;DHT22;37428;53.580;-1.666;2024-03-02T06:50:38;2.00;99.90
33988;DHT22;37428;53.580;-1.666;2024-03-02T06:53:40;2.00;99.90
33988;DHT22;37428;53.580;-1.666;2024-03-02T06:56:44;2.00;99.90
33988;DHT22;37428;53.580;-1.666;2024-03-02T06:59:46;2.00;99.90
33988;DHT22;37428;53.580;-1.666;2024-03-02T07:02:49;2.00;99.90
33988;DHT22;37428;53.580;-1.666;2024-03-02T07:05:51;2.00;99.90
33988;DHT22;37428;53.580;-1.666;2024-03-02T07:08:53;2.00;99.90
33988;DHT22;37428;53.580;-1.666;2024-03-02T07:11:57;2.00;99.90
33988;DHT22;37428;53.580;-1.666;2024-03-02T07:14:59;2.00;99.90
33988;DHT22;37428;53.580;-1.666;2024-03-02T07:18:25;2.00;99.90
33988;DHT22;37428;53.580;-1.666;2024-03-02T07:21:27;2.00;99.90
33988;DHT22;37428;53.580;-1.666;2024-03-02T07:24:29;2.10;99.90
33988;DHT22;37428;53.580;-1.666;2024-03-02T07:27:33;2.00;99.90
33988;DHT22;37428;53.580;-1.666;2024-03-02T07:30:36;2.00;99.90
33988;DHT22;37428;53.580;-1.666;2024-03-02T07:33:39;2.00;99.90
33988;DHT22;37428;53.580;-1.666;2024-03-02T07:36:41;2.00;99.90
33988;DHT22;37428;53.580;-1.666;2024-03-02T07:39:44;2.00;99.90
33988;DHT22;37428;53.580;-1.666;2024-03-02T07:42:47;2.10;99.90
33988;DHT22;37428;53.580;-1.666;2024-03-02T07:45:50;2.10;99.90
33988;DHT22;37428;53.580;-1.666;2024-03-02T07:48:52;2.00;99.90
33988;DHT22;37428;53.580;-1.666;2024-03-02T07:51:54;2.00;99.90
33988;DHT22;37428;53.580;-1.666;2024-03-02T07:54:56;2.10;99.90
33988;DHT22;37428;53.580;-1.666;2024-03-02T07:58:00;2.00;99.90
33988;DHT22;37428;53.580;-1.666;2024-03-02T08:01:03;2.00;99.90
33988;DHT22;37428;53.580;-1.666;2024-03-02T08:04:05;2.00;99.90
33988;DHT22;37428;53.580;-1.666;2024-03-02T08:07:08;2.00;99.90
33988;DHT22;37428;53.580;-1.666;2024-03-02T08:10:10;2.10;99.90
33988;DHT22;37428;53.580;-1.666;2024-03-02T08:13:14;2.10;99.90
33988;DHT22;37428;53.580;-1.666;2024-03-02T08:16:16;2.10;99.90
33988;DHT22;37428;53.580;-1.666;2024-03-02T08:19:20;2.10;99.90
33988;DHT22;37428;53.580;-1.666;2024-03-02T08:22:22;2.10;99.90
33988;DHT22;37428;53.580;-1.666;2024-03-02T08:25:25;2.20;99.90
33988;DHT22;37428;53.580;-1.666;2024-03-02T08:28:29;2.10;99.90
33988;DHT22;37428;53.580;-1.666;2024-03-02T08:31:31;2.10;99.90
33988;DHT22;37428;53.580;-1.666;2024-03-02T08:34:33;2.10;99.90
33988;DHT22;37428;53.580;-1.666;2024-03-02T08:37:38;2.10;99.90
33988;DHT22;37428;53.580;-1.666;2024-03-02T08:40:41;2.10;99.90
33988;DHT22;37428;53.580;-1.666;2024-03-02T08:43:45;2.10;99.90
33988;DHT22;37428;53.580;-1.666;2024-03-02T08:46:47;2.10;99.90
33988;DHT22;37428;53.580;-1.666;2024-03-02T08:49:49;2.20;99.90
33988;DHT22;37428;53.580;-1.666;2024-03-02T08:52:51;2.20;99.90
33988;DHT22;37428;53.580;-1.666;2024-03-02T08:55:53;2.20;99.90
33988;DHT22;37428;53.580;-1.666;2024-03-02T08:58:57;2.30;99.90
33988;DHT22;37428;53.580;-1.666;2024-03-02T09:01:59;2.30;99.90
33988;DHT22;37428;53.580;-1.666;2024-03-02T09:05:01;2.30;99.90
33988;DHT22;37428;53.580;-1.666;2024-03-02T09:08:04;2.40;99.90
33988;DHT22;37428;53.580;-1.666;2024-03-02T09:11:07;2.40;99.90
33988;DHT22;37428;53.580;-1.666;2024-03-02T09:14:10;2.40;99.90
33988;DHT22;37428;53.580;-1.666;2024-03-02T09:17:13;2.30;99.90
33988;DHT22;37428;53.580;-1.666;2024-03-02T09:20:16;2.40;99.90
33988;DHT22;37428;53.580;-1.666;2024-03-02T09:23:18;2.40;99.90
33988;DHT22;37428;53.580;-1.666;2024-03-02T09:26:20;2.40;99.90
33988;DHT22;37428;53.580;-1.666;2024-03-02T09:29:26;2.40;99.90
33988;DHT22;37428;53.580;-1.666;2024-03-02T09:32:29;2.50;99.90
33988;DHT22;37428;53.580;-1.666;2024-03-02T09:35:31;2.50;99.90
33988;DHT22;37428;53.580;-1.666;2024-03-02T09:38:33;2.60;99.90
33988;DHT22;37428;53.580;-1.666;2024-03-02T09:41:36;2.60;99.90
33988;DHT22;37428;53.580;-1.666;2024-03-02T09:44:40;2.70;99.90
33988;DHT22;37428;53.580;-1.666;2024-03-02T09:47:42;2.70;99.90
33988;DHT22;37428;53.580;-1.666;2024-03-02T09:50:46;2.80;99.90
33988;DHT22;37428;53.580;-1.666;2024-03-02T09:53:48;2.80;99.90
33988;DHT22;37428;53.580;-1.666;2024-03-02T09:56:50;2.90;99.90
33988;DHT22;37428;53.580;-1.666;2024-03-02T09:59:54;3.00;99.90
33988;DHT22;37428;53.580;-1.666;2024-03-02T10:02:56;3.00;99.90
33988;DHT22;37428;53.580;-1.666;2024-03-02T10:06:20;3.10;99.90
33988;DHT22;37428;53.580;-1.666;2024-03-02T10:09:27;3.10;99.90
33988;DHT22;37428;53.580;-1.666;2024-03-02T10:12:29;3.00;99.90
33988;DHT22;37428;53.580;-1.666;2024-03-02T10:15:33;3.00;99.90
33988;DHT22;37428;53.580;-1.666;2024-03-02T10:18:35;3.10;99.90
33988;DHT22;37428;53.580;-1.666;2024-03-02T10:21:40;3.10;99.90
33988;DHT22;37428;53.580;-1.666;2024-03-02T10:24:43;3.10;99.90
33988;DHT22;37428;53.580;-1.666;2024-03-02T10:27:50;3.10;99.90
33988;DHT22;37428;53.580;-1.666;2024-03-02T10:30:54;3.10;99.90
33988;DHT22;37428;53.580;-1.666;2024-03-02T10:33:57;3.10;99.90
33988;DHT22;37428;53.580;-1.666;2024-03-02T10:37:00;3.20;99.90
33988;DHT22;37428;53.580;-1.666;2024-03-02T10:40:04;3.10;99.90
33988;DHT22;37428;53.580;-1.666;2024-03-02T10:43:07;3.20;99.90
33988;DHT22;37428;53.580;-1.666;2024-03-02T10:46:11;3.10;99.90
33988;DHT22;37428;53.580;-1.666;2024-03-02T10:49:14;3.20;99.90
33988;DHT22;37428;53.580;-1.666;2024-03-02T10:52:16;3.20;99.90
33988;DHT22;37428;53.580;-1.666;2024-03-02T10:55:18;3.20;99.90
33988;DHT22;37428;53.580;-1.666;2024-03-02T10:58:20;3.20;99.90
33988;DHT22;37428;53.580;-1.666;2024-03-02T11:01:25;3.20;99.90
33988;DHT22;37428;53.580;-1.666;2024-03-02T11:04:28;3.10;99.90
33988;DHT22;37428;53.580;-1.666;2024-03-02T11:07:31;3.20;99.90
33988;DHT22;37428;53.580;-1.666;2024-03-02T11:10:35;3.20;99.90
33988;DHT22;37428;53.580;-1.666;2024-03-02T11:13:38;3.20;99.90
33988;DHT22;37428;53.580;-1.666;2024-03-02T11:16:45;3.20;99.90
33988;DHT22;37428;53.580;-1.666;2024-03-02T11:19:48;3.20;99.90
33988;DHT22;37428;53.580;-1.666;2024-03-02T11:22:51;3.30;99.90
33988;DHT22;37428;53.580;-1.666;2024-03-02T11:25:53;3.30;99.90
33988;DHT22;37428;53.580;-1.666;2024-03-02T11:28:55;3.40;99.90
33988;DHT22;37428;53.580;-1.666;2024-03-02T11:32:01;3.40;99.90
33988;DHT22;37428;53.580;-1.666;2024-03-02T11:35:03;3.50;99.90
33988;DHT22;37428;53.580;-1.666;2024-03-02T11:38:08;3.50;99.90
33988;DHT22;37428;53.580;-1.666;2024-03-02T11:41:12;3.50;99.90
33988;DHT22;37428;53.580;-1.666;2024-03-02T11:44:15;3.60;99.90
33988;DHT22;37428;53.580;-1.666;2024-03-02T11:47:19;3.60;99.90
33988;DHT22;37428;53.580;-1.666;2024-03-02T11:50:29;3.70;99.90
33988;DHT22;37428;53.580;-1.666;2024-03-02T11:53:31;3.70;99.90
33988;DHT22;37428;53.580;-1.666;2024-03-02T11:56:35;3.80;99.90
33988;DHT22;37428;53.580;-1.666;2024-03-02T11:59:37;3.90;99.90
33988;DHT22;37428;53.580;-1.666;2024-03-02T12:02:41;3.90;99.90
33988;DHT22;37428;53.580;-1.666;2024-03-02T12:05:49;3.90;99.90
33988;DHT22;37428;53.580;-1.666;2024-03-02T12:08:53;3.90;99.90
33988;DHT22;37428;53.580;-1.666;2024-03-02T12:12:03;4.00;99.90
33988;DHT22;37428;53.580;-1.666;2024-03-02T12:15:06;4.10;99.90
33988;DHT22;37428;53.580;-1.666;2024-03-02T12:18:10;4.10;99.90
33988;DHT22;37428;53.580;-1.666;2024-03-02T12:21:12;4.10;99.90
33988;DHT22;37428;53.580;-1.666;2024-03-02T12:24:14;4.20;99.90
33988;DHT22;37428;53.580;-1.666;2024-03-02T12:27:16;4.20;99.90
33988;DHT22;37428;53.580;-1.666;2024-03-02T12:30:19;4.20;99.90
33988;DHT22;37428;53.580;-1.666;2024-03-02T12:33:22;4.20;99.90
33988;DHT22;37428;53.580;-1.666;2024-03-02T12:36:25;4.20;99.90
33988;DHT22;37428;53.580;-1.666;2024-03-02T12:39:27;4.30;99.90
33988;DHT22;37428;53.580;-1.666;2024-03-02T12:42:30;4.40;99.90
33988;DHT22;37428;53.580;-1.666;2024-03-02T12:45:32;4.60;99.90
33988;DHT22;37428;53.580;-1.666;2024-03-02T12:48:37;4.70;99.90
33988;DHT22;37428;53.580;-1.666;2024-03-02T12:51:42;4.70;99.90
33988;DHT22;37428;53.580;-1.666;2024-03-02T12:54:45;4.80;99.90
33988;DHT22;37428;53.580;-1.666;2024-03-02T12:57:49;4.80;99.90
33988;DHT22;37428;53.580;-1.666;2024-03-02T13:01:05;4.80;99.90
33988;DHT22;37428;53.580;-1.666;2024-03-02T13:04:09;4.80;99.90
33988;DHT22;37428;53.580;-1.666;2024-03-02T13:07:11;4.80;99.90
33988;DHT22;37428;53.580;-1.666;2024-03-02T13:10:14;4.90;99.90
33988;DHT22;37428;53.580;-1.666;2024-03-02T13:13:16;4.90;99.90
33988;DHT22;37428;53.580;-1.666;2024-03-02T13:16:19;4.90;99.90
33988;DHT22;37428;53.580;-1.666;2024-03-02T13:19:23;4.80;99.90
33988;DHT22;37428;53.580;-1.666;2024-03-02T13:22:26;4.80;99.90
33988;DHT22;37428;53.580;-1.666;2024-03-02T13:25:28;4.80;99.90
33988;DHT22;37428;53.580;-1.666;2024-03-02T13:28:32;4.80;99.90
33988;DHT22;37428;53.580;-1.666;2024-03-02T13:31:34;4.80;99.90
33988;DHT22;37428;53.580;-1.666;2024-03-02T13:34:37;4.70;99.90
33988;DHT22;37428;53.580;-1.666;2024-03-02T13:37:39;4.70;99.90
33988;DHT22;37428;53.580;-1.666;2024-03-02T13:40:42;4.70;99.90
33988;DHT22;37428;53.580;-1.666;2024-03-02T13:43:44;4.70;99.90
33988;DHT22;37428;53.580;-1.666;2024-03-02T13:46:46;4.70;99.90
33988;DHT22;37428;53.580;-1.666;2024-03-02T13:49:50;4.70;99.90
33988;DHT22;37428;53.580;-1.666;2024-03-02T13:52:52;4.70;99.90
33988;DHT22;37428;53.580;-1.666;2024-03-02T13:55:54;4.70;99.90
33988;DHT22;37428;53.580;-1.666;2024-03-02T13:58:57;4.80;99.90
33988;DHT22;37428;53.580;-1.666;2024-03-02T14:01:59;4.80;99.90
33988;DHT22;37428;53.580;-1.666;2024-03-02T14:05:03;4.80;99.90
33988;DHT22;37428;53.580;-1.666;2024-03-02T14:08:05;4.80;99.90
33988;DHT22;37428;53.580;-1.666;2024-03-02T14:11:07;4.80;99.90
33988;DHT22;37428;53.580;-1.666;2024-03-02T14:14:12;4.80;99.90
33988;DHT22;37428;53.580;-1.666;2024-03-02T14:17:14;4.90;99.90
33988;DHT22;37428;53.580;-1.666;2024-03-02T14:20:18;5.00;99.90
33988;DHT22;37428;53.580;-1.666;2024-03-02T14:23:22;5.20;99.90
33988;DHT22;37428;53.580;-1.666;2024-03-02T14:26:26;5.20;99.90
33988;DHT22;37428;53.580;-1.666;2024-03-02T14:29:28;5.30;99.90
33988;DHT22;37428;53.580;-1.666;2024-03-02T14:32:31;5.40;99.90
33988;DHT22;37428;53.580;-1.666;2024-03-02T14:35:34;5.40;99.90
33988;DHT22;37428;53.580;-1.666;2024-03-02T14:38:36;5.40;99.90
33988;DHT22;37428;53.580;-1.666;2024-03-02T14:41:39;5.40;99.90
33988;DHT22;37428;53.580;-1.666;2024-03-02T14:44:41;5.40;99.90
33988;DHT22;37428;53.580;-1.666;2024-03-02T14:47:43;5.40;99.90
33988;DHT22;37428;53.580;-1.666;2024-03-02T14:50:47;5.40;99.90
33988;DHT22;37428;53.580;-1.666;2024-03-02T14:53:51;5.40;99.90
33988;DHT22;37428;53.580;-1.666;2024-03-02T14:56:53;5.50;99.90
33988;DHT22;37428;53.580;-1.666;2024-03-02T14:59:55;5.80;99.90
33988;DHT22;37428;53.580;-1.666;2024-03-02T15:02:57;5.90;99.90
33988;DHT22;37428;53.580;-1.666;2024-03-02T15:06:01;5.90;99.90
33988;DHT22;37428;53.580;-1.666;2024-03-02T15:09:04;5.80;99.90
33988;DHT22;37428;53.580;-1.666;2024-03-02T15:12:07;5.80;99.90
33988;DHT22;37428;53.580;-1.666;2024-03-02T15:15:13;5.70;99.90
33988;DHT22;37428;53.580;-1.666;2024-03-02T15:18:15;5.60;99.90
33988;DHT22;37428;53.580;-1.666;2024-03-02T15:21:18;5.60;99.90
33988;DHT22;37428;53.580;-1.666;2024-03-02T15:24:20;5.60;99.90
33988;DHT22;37428;53.580;-1.666;2024-03-02T15:27:23;5.60;99.90
33988;DHT22;37428;53.580;-1.666;2024-03-02T15:30:25;5.60;99.90
33988;DHT22;37428;53.580;-1.666;2024-03-02T15:33:28;5.60;99.90
33988;DHT22;37428;53.580;-1.666;2024-03-02T15:36:33;5.50;99.90
33988;DHT22;37428;53.580;-1.666;2024-03-02T15:39:35;5.50;99.90
33988;DHT22;37428;53.580;-1.666;2024-03-02T15:42:38;5.40;99.90
33988;DHT22;37428;53.580;-1.666;2024-03-02T15:45:40;5.30;99.90
33988;DHT22;37428;53.580;-1.666;2024-03-02T15:48:42;5.30;99.90
33988;DHT22;37428;53.580;-1.666;2024-03-02T15:51:46;5.30;99.90
33988;DHT22;37428;53.580;-1.666;2024-03-02T15:54:48;5.20;99.90
33988;DHT22;37428;53.580;-1.666;2024-03-02T15:57:50;5.10;99.90
33988;DHT22;37428;53.580;-1.666;2024-03-02T16:00:52;5.00;99.90
33988;DHT22;37428;53.580;-1.666;2024-03-02T16:03:54;4.90;99.90
33988;DHT22;37428;53.580;-1.666;2024-03-02T16:06:58;4.80;99.90
33988;DHT22;37428;53.580;-1.666;2024-03-02T16:10:00;5.00;99.90
33988;DHT22;37428;53.580;-1.666;2024-03-02T16:13:07;5.20;99.90
33988;DHT22;37428;53.580;-1.666;2024-03-02T16:16:10;5.40;99.90
33988;DHT22;37428;53.580;-1.666;2024-03-02T16:19:12;5.70;99.80
33988;DHT22;37428;53.580;-1.666;2024-03-02T16:22:16;5.90;99.40
33988;DHT22;37428;53.580;-1.666;2024-03-02T16:25:18;5.80;98.20
33988;DHT22;37428;53.580;-1.666;2024-03-02T16:28:20;5.70;98.20
33988;DHT22;37428;53.580;-1.666;2024-03-02T16:31:22;5.70;98.50
33988;DHT22;37428;53.580;-1.666;2024-03-02T16:34:25;5.70;98.50
33988;DHT22;37428;53.580;-1.666;2024-03-02T16:37:28;5.60;98.50
33988;DHT22;37428;53.580;-1.666;2024-03-02T16:40:31;5.60;97.80
33988;DHT22;37428;53.580;-1.666;2024-03-02T16:43:33;5.40;97.70
33988;DHT22;37428;53.580;-1.666;2024-03-02T16:46:35;5.20;96.40
33988;DHT22;37428;53.580;-1.666;2024-03-02T16:49:38;5.00;94.80
33988;DHT22;37428;53.580;-1.666;2024-03-02T16:52:42;4.90;93.80
33988;DHT22;37428;53.580;-1.666;2024-03-02T16:55:44;4.70;92.20
33988;DHT22;37428;53.580;-1.666;2024-03-02T16:58:46;4.70;93.40
33988;DHT22;37428;53.580;-1.666;2024-03-02T17:01:48;4.50;91.70
33988;DHT22;37428;53.580;-1.666;2024-03-02T17:04:51;4.40;91.40
33988;DHT22;37428;53.580;-1.666;2024-03-02T17:07:55;4.30;91.90
33988;DHT22;37428;53.580;-1.666;2024-03-02T17:10:58;4.30;93.20
33988;DHT22;37428;53.580;-1.666;2024-03-02T17:14:01;4.20;93.80
33988;DHT22;37428;53.580;-1.666;2024-03-02T17:17:04;4.20;94.40
33988;DHT22;37428;53.580;-1.666;2024-03-02T17:20:07;4.20;95.00
33988;DHT22;37428;53.580;-1.666;2024-03-02T17:23:11;4.20;95.10
33988;DHT22;37428;53.580;-1.666;2024-03-02T17:26:13;4.20;95.80
33988;DHT22;37428;53.580;-1.666;2024-03-02T17:29:15;4.20;96.60
33988;DHT22;37428;53.580;-1.666;2024-03-02T17:32:18;4.20;96.10
33988;DHT22;37428;53.580;-1.666;2024-03-02T17:35:20;4.20;96.60
33988;DHT22;37428;53.580;-1.666;2024-03-02T17:38:23;4.10;96.10
33988;DHT22;37428;53.580;-1.666;2024-03-02T17:41:26;4.10;96.20
33988;DHT22;37428;53.580;-1.666;2024-03-02T17:44:28;4.10;96.80
33988;DHT22;37428;53.580;-1.666;2024-03-02T17:47:30;4.10;96.90
33988;DHT22;37428;53.580;-1.666;2024-03-02T17:50:32;4.10;97.00
33988;DHT22;37428;53.580;-1.666;2024-03-02T17:53:35;4.00;97.50
33988;DHT22;37428;53.580;-1.666;2024-03-02T17:56:38;4.00;97.60
33988;DHT22;37428;53.580;-1.666;2024-03-02T17:59:40;4.00;97.20
33988;DHT22;37428;53.580;-1.666;2024-03-02T18:02:44;4.00;97.50
33988;DHT22;37428;53.580;-1.666;2024-03-02T18:05:46;4.00;97.60
33988;DHT22;37428;53.580;-1.666;2024-03-02T18:08:49;4.00;97.80
33988;DHT22;37428;53.580;-1.666;2024-03-02T18:11:52;4.00;98.00
33988;DHT22;37428;53.580;-1.666;2024-03-02T18:14:54;4.00;98.50
33988;DHT22;37428;53.580;-1.666;2024-03-02T18:17:56;4.00;98.90
33988;DHT22;37428;53.580;-1.666;2024-03-02T18:20:58;4.10;99.40
33988;DHT22;37428;53.580;-1.666;2024-03-02T18:24:02;4.10;98.90
33988;DHT22;37428;53.580;-1.666;2024-03-02T18:27:04;4.00;98.90
33988;DHT22;37428;53.580;-1.666;2024-03-02T18:30:07;3.90;98.50
33988;DHT22;37428;53.580;-1.666;2024-03-02T18:33:11;3.90;98.90
33988;DHT22;37428;53.580;-1.666;2024-03-02T18:36:13;3.80;98.60
33988;DHT22;37428;53.580;-1.666;2024-03-02T18:39:17;3.70;99.00
33988;DHT22;37428;53.580;-1.666;2024-03-02T18:42:19;3.70;99.80
33988;DHT22;37428;53.580;-1.666;2024-03-02T18:45:21;3.60;99.90
33988;DHT22;37428;53.580;-1.666;2024-03-02T18:48:23;3.50;99.90
33988;DHT22;37428;53.580;-1.666;2024-03-02T18:51:25;3.40;99.90
33988;DHT22;37428;53.580;-1.666;2024-03-02T18:54:29;3.50;99.90
33988;DHT22;37428;53.580;-1.666;2024-03-02T18:57:31;3.50;99.90
33988;DHT22;37428;53.580;-1.666;2024-03-02T19:00:33;3.50;99.90
33988;DHT22;37428;53.580;-1.666;2024-03-02T19:03:35;3.50;99.90
33988;DHT22;37428;53.580;-1.666;2024-03-02T19:06:37;3.50;99.90
33988;DHT22;37428;53.580;-1.666;2024-03-02T19:09:41;3.60;99.90
33988;DHT22;37428;53.580;-1.666;2024-03-02T19:12:43;3.60;99.90
33988;DHT22;37428;53.580;-1.666;2024-03-02T19:15:46;3.50;99.90